Time,TemperatureF,DewpointF,PressureIn,WindDirection,WindDirectionDegrees,WindSpeedMPH,WindSpeedGustMPH,Humidity,HourlyPrecipIn,Conditions,Clouds,dailyrainin,SolarRadiationWatts/m^2,SoftwareType,DateUTC
2013-11-29 00:01:00,24.6,22.6,30.55,East,96,0.0,2.0,92,0.00,,,0.00,0,HR-IXPWINDi_r2_v1.2.,2013-11-29 05:01:00,
2013-11-29 00:06:00,24.1,22.1,30.55,East,96,0.0,2.0,92,0.00,,,0.00,0,HR-IXPWINDi_r2_v1.2.,2013-11-29 05:06:00,
2013-11-29 00:11:00,23.9,21.9,30.55,East,96,0.0,0.0,92,0.00,,,0.00,0,HR-IXPWINDi_r2_v1.2.,2013-11-29 05:11:00,
2013-11-29 00:16:00,24.2,22.2,30.55,East,96,0.0,1.0,92,0.00,,,0.00,0,HR-IXPWINDi_r2_v1.2.,2013-11-29 05:16:00,
2013-11-29 00:21:00,24.0,22.0,30.56,East,96,0.0,2.0,92,0.00,,,0.00,0,HR-IXPWINDi_r2_v1.2.,2013-11-29 05:21:00,
2013-11-29 00:26:00,24.1,22.1,30.56,East,96,0.0,2.0,92,0.00,,,0.00,0,HR-IXPWINDi_r2_v1.2.,2013-11-29 05:26:00,
2013-11-29 00:32:00,24.0,22.0,30.56,East,96,0.0,0.0,92,0.00,,,0.00,0,HR-IXPWINDi_r2_v1.2.,2013-11-29 05:32:00,
2013-11-29 00:37:00,23.4,21.4,30.56,East,96,0.0,0.0,92,0.00,,,0.00,0,HR-IXPWINDi_r2_v1.2.,2013-11-29 05:37:00,
2013-11-29 00:42:00,23.5,21.5,30.56,East,96,0.0,0.0,92,0.00,,,0.00,0,HR-IXPWINDi_r2_v1.2.,2013-11-29 05:42:00,
2013-11-29 00:47:00,23.7,21.7,30.56,East,96,0.0,0.0,92,0.00,,,0.00,0,HR-IXPWINDi_r2_v1.2.,2013-11-29 05:47:00,
2013-11-29 00:52:00,24.0,22.0,30.56,East,96,0.0,0.0,92,0.00,,,0.00,0,HR-IXPWINDi_r2_v1.2.,2013-11-29 05:52:00,
2013-11-29 00:58:00,23.3,21.3,30.56,East,96,0.0,0.0,92,0.00,,,0.00,0,HR-IXPWINDi_r2_v1.2.,2013-11-29 05:58:00,
2013-11-29 01:03:00,23.0,21.0,30.56,East,96,0.0,0.0,92,0.00,,,0.00,0,HR-IXPWINDi_r2_v1.2.,2013-11-29 06:03:00,
2013-11-29 01:08:00,23.0,21.0,30.56,East,96,0.0,0.0,92,0.00,,,0.00,0,HR-IXPWINDi_r2_v1.2.,2013-11-29 06:08:00,
2013-11-29 01:13:00,22.8,20.8,30.56,East,96,0.0,0.0,92,0.00,,,0.00,0,HR-IXPWINDi_r2_v1.2.,2013-11-29 06:13:00,
2013-11-29 01:18:00,23.3,21.6,30.56,East,96,0.0,0.0,93,0.00,,,0.00,0,HR-IXPWINDi_r2_v1.2.,2013-11-29 06:18:00,
2013-11-29 01:23:00,23.1,21.1,30.56,East,96,0.0,2.0,92,0.00,,,0.00,0,HR-IXPWINDi_r2_v1.2.,2013-11-29 06:23:00,
2013-11-29 01:28:00,23.0,21.3,30.56,East,96,0.0,2.0,93,0.00,,,0.00,0,HR-IXPWINDi_r2_v1.2.,2013-11-29 06:28:00,
2013-11-29 01:34:00,22.7,20.7,30.56,East,96,0.0,2.0,92,0.00,,,0.00,0,HR-IXPWINDi_r2_v1.2.,2013-11-29 06:34:00,
2013-11-29 01:39:00,22.8,21.1,30.57,East,96,0.0,0.0,93,0.00,,,0.00,0,HR-IXPWINDi_r2_v1.2.,2013-11-29 06:39:00,
2013-11-29 01:44:00,23.0,21.3,30.57,East,96,0.0,0.0,93,0.00,,,0.00,0,HR-IXPWINDi_r2_v1.2.,2013-11-29 06:44:00,
2013-11-29 01:49:00,22.7,20.7,30.57,East,96,0.0,0.0,92,0.00,,,0.00,0,HR-IXPWINDi_r2_v1.2.,2013-11-29 06:49:00,
2013-11-29 01:54:00,22.4,20.4,30.56,East,96,0.0,0.0,92,0.00,,,0.00,0,HR-IXPWINDi_r2_v1.2.,2013-11-29 06:54:00,
2013-11-29 02:00:00,22.8,21.1,30.57,East,96,0.0,0.0,93,0.00,,,0.00,0,HR-IXPWINDi_r2_v1.2.,2013-11-29 07:00:00,
2013-11-29 02:05:00,22.6,20.9,30.57,East,96,1.0,1.0,93,0.00,,,0.00,0,HR-IXPWINDi_r2_v1.2.,2013-11-29 07:05:00,
2013-11-29 02:10:00,22.0,20.0,30.57,East,96,0.0,1.0,92,0.00,,,0.00,0,HR-IXPWINDi_r2_v1.2.,2013-11-29 07:10:00,
2013-11-29 02:16:00,22.0,20.3,30.57,East,96,0.0,1.0,93,0.00,,,0.00,0,HR-IXPWINDi_r2_v1.2.,2013-11-29 07:16:00,
2013-11-29 02:21:00,22.2,20.5,30.57,East,96,0.0,0.0,93,0.00,,,0.00,0,HR-IXPWINDi_r2_v1.2.,2013-11-29 07:21:00,
2013-11-29 02:26:00,22.2,20.5,30.57,East,96,0.0,0.0,93,0.00,,,0.00,0,HR-IXPWINDi_r2_v1.2.,2013-11-29 07:26:00,
2013-11-29 02:31:00,22.2,20.5,30.57,East,96,1.0,1.0,93,0.00,,,0.00,0,HR-IXPWINDi_r2_v1.2.,2013-11-29 07:31:00,
2013-11-29 02:36:00,22.1,20.4,30.57,East,96,0.0,1.0,93,0.00,,,0.00,0,HR-IXPWINDi_r2_v1.2.,2013-11-29 07:36:00,
2013-11-29 02:41:00,22.0,20.3,30.58,East,96,0.0,2.0,93,0.00,,,0.00,0,HR-IXPWINDi_r2_v1.2.,2013-11-29 07:41:00,
2013-11-29 02:46:00,22.3,20.6,30.57,East,96,0.0,2.0,93,0.00,,,0.00,0,HR-IXPWINDi_r2_v1.2.,2013-11-29 07:46:00,
2013-11-29 02:51:00,22.6,20.9,30.57,East,96,0.0,2.0,93,0.00,,,0.00,0,HR-IXPWINDi_r2_v1.2.,2013-11-29 07:51:00,
2013-11-29 02:57:00,22.4,20.7,30.57,East,96,2.0,2.0,93,0.00,,,0.00,0,HR-IXPWINDi_r2_v1.2.,2013-11-29 07:57:00,
2013-11-29 03:02:00,22.2,20.5,30.57,East,96,0.0,2.0,93,0.00,,,0.00,0,HR-IXPWINDi_r2_v1.2.,2013-11-29 08:02:00,
2013-11-29 03:07:00,22.4,20.7,30.57,East,96,1.0,2.0,93,0.00,,,0.00,0,HR-IXPWINDi_r2_v1.2.,2013-11-29 08:07:00,
2013-11-29 03:12:00,22.3,20.6,30.57,South,176,2.0,5.0,93,0.00,,,0.00,0,HR-IXPWINDi_r2_v1.2.,2013-11-29 08:12:00,
2013-11-29 03:17:00,22.2,20.5,30.57,SW,224,0.0,5.0,93,0.00,,,0.00,0,HR-IXPWINDi_r2_v1.2.,2013-11-29 08:17:00,
2013-11-29 03:22:00,22.2,20.5,30.57,SW,224,0.0,4.0,93,0.00,,,0.00,0,HR-IXPWINDi_r2_v1.2.,2013-11-29 08:22:00,
2013-11-29 03:28:00,22.3,20.6,30.57,SW,224,1.0,2.0,93,0.00,,,0.00,0,HR-IXPWINDi_r2_v1.2.,2013-11-29 08:28:00,
2013-11-29 03:33:00,22.0,20.3,30.57,SW,224,0.0,2.0,93,0.00,,,0.00,0,HR-IXPWINDi_r2_v1.2.,2013-11-29 08:33:00,
2013-11-29 03:38:00,22.0,20.3,30.57,SW,224,0.0,2.0,93,0.00,,,0.00,0,HR-IXPWINDi_r2_v1.2.,2013-11-29 08:38:00,
2013-11-29 03:43:00,21.9,20.2,30.57,SW,224,0.0,1.0,93,0.00,,,0.00,0,HR-IXPWINDi_r2_v1.2.,2013-11-29 08:43:00,
2013-11-29 03:48:00,21.9,20.2,30.57,SW,224,1.0,1.0,93,0.00,,,0.00,0,HR-IXPWINDi_r2_v1.2.,2013-11-29 08:48:00,
2013-11-29 03:53:00,22.0,20.3,30.57,SW,224,0.0,2.0,93,0.00,,,0.00,0,HR-IXPWINDi_r2_v1.2.,2013-11-29 08:53:00,
2013-11-29 03:59:00,22.0,20.3,30.57,SW,224,0.0,2.0,93,0.00,,,0.00,0,HR-IXPWINDi_r2_v1.2.,2013-11-29 08:59:00,
2013-11-29 04:04:00,21.6,19.9,30.57,SW,224,0.0,3.0,93,0.00,,,0.00,0,HR-IXPWINDi_r2_v1.2.,2013-11-29 09:04:00,
2013-11-29 04:09:00,21.3,19.6,30.57,SW,224,0.0,3.0,93,0.00,,,0.00,0,HR-IXPWINDi_r2_v1.2.,2013-11-29 09:09:00,
2013-11-29 04:14:00,21.5,19.8,30.57,SW,224,0.0,2.0,93,0.00,,,0.00,0,HR-IXPWINDi_r2_v1.2.,2013-11-29 09:14:00,
2013-11-29 04:19:00,21.5,19.8,30.57,SW,224,0.0,2.0,93,0.00,,,0.00,0,HR-IXPWINDi_r2_v1.2.,2013-11-29 09:19:00,
2013-11-29 04:25:00,21.5,19.8,30.57,SW,224,0.0,2.0,93,0.00,,,0.00,0,HR-IXPWINDi_r2_v1.2.,2013-11-29 09:25:00,
2013-11-29 04:30:00,21.6,19.9,30.57,SW,224,0.0,1.0,93,0.00,,,0.00,0,HR-IXPWINDi_r2_v1.2.,2013-11-29 09:30:00,
2013-11-29 04:35:00,21.3,19.6,30.57,SW,224,0.0,1.0,93,0.00,,,0.00,0,HR-IXPWINDi_r2_v1.2.,2013-11-29 09:35:00,
2013-11-29 04:40:00,21.5,19.8,30.57,SW,224,0.0,2.0,93,0.00,,,0.00,0,HR-IXPWINDi_r2_v1.2.,2013-11-29 09:40:00,
2013-11-29 04:45:00,21.6,19.9,30.57,SW,224,0.0,2.0,93,0.00,,,0.00,0,HR-IXPWINDi_r2_v1.2.,2013-11-29 09:45:00,
2013-11-29 04:50:00,22.0,20.3,30.57,SW,224,0.0,0.0,93,0.00,,,0.00,0,HR-IXPWINDi_r2_v1.2.,2013-11-29 09:50:00,
2013-11-29 04:55:00,21.5,19.5,30.58,SW,224,0.0,0.0,92,0.00,,,0.00,0,HR-IXPWINDi_r2_v1.2.,2013-11-29 09:55:00,
2013-11-29 05:00:00,21.0,19.1,30.58,SW,224,0.0,0.0,92,0.00,,,0.00,0,HR-IXPWINDi_r2_v1.2.,2013-11-29 10:00:00,
2013-11-29 05:05:00,21.2,19.5,30.58,SW,224,0.0,0.0,93,0.00,,,0.00,0,HR-IXPWINDi_r2_v1.2.,2013-11-29 10:05:00,
2013-11-29 05:10:00,21.3,19.6,30.58,SW,224,0.0,1.0,93,0.00,,,0.00,0,HR-IXPWINDi_r2_v1.2.,2013-11-29 10:10:00,
2013-11-29 05:15:00,21.2,19.3,30.58,SW,224,0.0,1.0,92,0.00,,,0.00,0,HR-IXPWINDi_r2_v1.2.,2013-11-29 10:15:00,
2013-11-29 05:20:00,21.1,19.2,30.58,SW,224,0.0,0.0,92,0.00,,,0.00,0,HR-IXPWINDi_r2_v1.2.,2013-11-29 10:20:00,
2013-11-29 05:25:00,21.2,19.5,30.58,SW,224,0.0,0.0,93,0.00,,,0.00,0,HR-IXPWINDi_r2_v1.2.,2013-11-29 10:25:00,
2013-11-29 05:30:00,21.3,19.6,30.58,SW,224,0.0,0.0,93,0.00,,,0.00,0,HR-IXPWINDi_r2_v1.2.,2013-11-29 10:30:00,
2013-11-29 05:36:00,21.7,20.0,30.59,SW,224,0.0,0.0,93,0.00,,,0.00,0,HR-IXPWINDi_r2_v1.2.,2013-11-29 10:36:00,
2013-11-29 05:41:00,21.1,19.2,30.59,SW,224,0.0,0.0,92,0.00,,,0.00,0,HR-IXPWINDi_r2_v1.2.,2013-11-29 10:41:00,
2013-11-29 05:46:00,20.8,18.9,30.59,SW,224,0.0,0.0,92,0.00,,,0.00,0,HR-IXPWINDi_r2_v1.2.,2013-11-29 10:46:00,
2013-11-29 05:51:00,21.1,19.4,30.59,SW,224,0.0,0.0,93,0.00,,,0.00,0,HR-IXPWINDi_r2_v1.2.,2013-11-29 10:51:00,
2013-11-29 05:56:00,21.0,19.1,30.59,SW,224,0.0,0.0,92,0.00,,,0.00,0,HR-IXPWINDi_r2_v1.2.,2013-11-29 10:56:00,
2013-11-29 06:02:00,20.9,19.0,30.60,SW,224,0.0,0.0,92,0.00,,,0.00,0,HR-IXPWINDi_r2_v1.2.,2013-11-29 11:02:00,
2013-11-29 06:07:00,20.8,18.9,30.60,SW,224,0.0,0.0,92,0.00,,,0.00,0,HR-IXPWINDi_r2_v1.2.,2013-11-29 11:07:00,
2013-11-29 06:12:00,20.8,19.1,30.60,SW,224,0.0,0.0,93,0.00,,,0.00,0,HR-IXPWINDi_r2_v1.2.,2013-11-29 11:12:00,
2013-11-29 06:17:00,20.7,18.8,30.61,SW,224,0.0,2.0,92,0.00,,,0.00,0,HR-IXPWINDi_r2_v1.2.,2013-11-29 11:17:00,
2013-11-29 06:22:00,20.8,18.9,30.61,SW,224,0.0,2.0,92,0.00,,,0.00,0,HR-IXPWINDi_r2_v1.2.,2013-11-29 11:22:00,
2013-11-29 06:27:00,20.6,18.7,30.61,SW,224,0.0,1.0,92,0.00,,,0.00,0,HR-IXPWINDi_r2_v1.2.,2013-11-29 11:27:00,
2013-11-29 06:33:00,20.4,18.5,30.62,SW,224,0.0,0.0,92,0.00,,,0.00,0,HR-IXPWINDi_r2_v1.2.,2013-11-29 11:33:00,
2013-11-29 06:38:00,20.4,18.7,30.62,SW,224,0.0,0.0,93,0.00,,,0.00,0,HR-IXPWINDi_r2_v1.2.,2013-11-29 11:38:00,
2013-11-29 06:43:00,20.5,18.8,30.62,SW,224,0.0,0.0,93,0.00,,,0.00,0,HR-IXPWINDi_r2_v1.2.,2013-11-29 11:43:00,
2013-11-29 06:48:00,20.7,19.0,30.62,SW,224,0.0,0.0,93,0.00,,,0.00,0,HR-IXPWINDi_r2_v1.2.,2013-11-29 11:48:00,
2013-11-29 06:53:00,20.4,18.7,30.62,SW,224,0.0,0.0,93,0.00,,,0.00,0,HR-IXPWINDi_r2_v1.2.,2013-11-29 11:53:00,
2013-11-29 06:59:00,20.4,18.7,30.62,SW,224,0.0,0.0,93,0.00,,,0.00,0,HR-IXPWINDi_r2_v1.2.,2013-11-29 11:59:00,
2013-11-29 07:04:00,20.5,18.8,30.62,SW,224,1.0,2.0,93,0.00,,,0.00,0,HR-IXPWINDi_r2_v1.2.,2013-11-29 12:04:00,
2013-11-29 07:09:00,20.5,18.8,30.62,SW,224,0.0,2.0,93,0.00,,,0.00,0,HR-IXPWINDi_r2_v1.2.,2013-11-29 12:09:00,
2013-11-29 07:14:00,20.4,18.7,30.63,SW,224,0.0,2.0,93,0.00,,,0.00,0,HR-IXPWINDi_r2_v1.2.,2013-11-29 12:14:00,
2013-11-29 07:19:00,20.2,18.5,30.63,SW,224,0.0,0.0,93,0.00,,,0.00,0,HR-IXPWINDi_r2_v1.2.,2013-11-29 12:19:00,
2013-11-29 07:24:00,20.5,18.8,30.63,SW,224,0.0,0.0,93,0.00,,,0.00,5,HR-IXPWINDi_r2_v1.2.,2013-11-29 12:24:00,
2013-11-29 07:29:00,20.8,19.1,30.63,SW,224,0.0,0.0,93,0.00,,,0.00,5,HR-IXPWINDi_r2_v1.2.,2013-11-29 12:29:00,
2013-11-29 07:35:00,20.2,18.3,30.64,SW,224,0.0,0.0,92,0.00,,,0.00,7,HR-IXPWINDi_r2_v1.2.,2013-11-29 12:35:00,
2013-11-29 07:40:00,20.4,18.7,30.64,SW,224,0.0,0.0,93,0.00,,,0.00,9,HR-IXPWINDi_r2_v1.2.,2013-11-29 12:40:00,
2013-11-29 07:45:00,20.8,19.1,30.64,SW,224,0.0,0.0,93,0.00,,,0.00,11,HR-IXPWINDi_r2_v1.2.,2013-11-29 12:45:00,
2013-11-29 07:50:00,21.1,19.4,30.64,SW,224,0.0,0.0,93,0.00,,,0.00,12,HR-IXPWINDi_r2_v1.2.,2013-11-29 12:50:00,
2013-11-29 07:56:00,20.9,19.2,30.64,SW,224,0.0,0.0,93,0.00,,,0.00,12,HR-IXPWINDi_r2_v1.2.,2013-11-29 12:56:00,
2013-11-29 08:01:00,20.5,18.6,30.64,SW,224,0.0,0.0,92,0.00,,,0.00,14,HR-IXPWINDi_r2_v1.2.,2013-11-29 13:01:00,
2013-11-29 08:06:00,20.6,18.9,30.64,SW,224,0.0,0.0,93,0.00,,,0.00,18,HR-IXPWINDi_r2_v1.2.,2013-11-29 13:06:00,
2013-11-29 08:11:00,20.4,18.5,30.64,SW,224,0.0,0.0,92,0.00,,,0.00,58,HR-IXPWINDi_r2_v1.2.,2013-11-29 13:11:00,
2013-11-29 08:17:00,20.8,19.1,30.65,SW,224,0.0,0.0,93,0.00,,,0.00,79,HR-IXPWINDi_r2_v1.2.,2013-11-29 13:17:00,
2013-11-29 08:22:00,21.7,20.0,30.64,SW,224,0.0,0.0,93,0.00,,,0.00,93,HR-IXPWINDi_r2_v1.2.,2013-11-29 13:22:00,
2013-11-29 08:27:00,22.1,20.4,30.65,SW,224,0.0,0.0,93,0.00,,,0.00,114,HR-IXPWINDi_r2_v1.2.,2013-11-29 13:27:00,
2013-11-29 08:32:00,22.5,20.8,30.65,SW,224,0.0,2.0,93,0.00,,,0.00,141,HR-IXPWINDi_r2_v1.2.,2013-11-29 13:32:00,
2013-11-29 08:37:00,23.2,21.5,30.65,SW,224,0.0,2.0,93,0.00,,,0.00,155,HR-IXPWINDi_r2_v1.2.,2013-11-29 13:37:00,
2013-11-29 08:43:00,24.2,22.7,30.65,SW,224,0.0,0.0,94,0.00,,,0.00,169,HR-IXPWINDi_r2_v1.2.,2013-11-29 13:43:00,
2013-11-29 08:48:00,24.4,22.7,30.65,SW,224,0.0,1.0,93,0.00,,,0.00,185,HR-IXPWINDi_r2_v1.2.,2013-11-29 13:48:00,
2013-11-29 08:53:00,25.2,23.5,30.65,SW,224,0.0,1.0,93,0.00,,,0.00,200,HR-IXPWINDi_r2_v1.2.,2013-11-29 13:53:00,
2013-11-29 08:58:00,25.7,24.0,30.65,SW,224,0.0,0.0,93,0.00,,,0.00,223,HR-IXPWINDi_r2_v1.2.,2013-11-29 13:58:00,
2013-11-29 09:03:00,26.2,24.2,30.65,SW,224,0.0,1.0,92,0.00,,,0.00,243,HR-IXPWINDi_r2_v1.2.,2013-11-29 14:03:00,
2013-11-29 09:08:00,26.6,24.3,30.65,SW,224,0.0,1.0,91,0.00,,,0.00,265,HR-IXPWINDi_r2_v1.2.,2013-11-29 14:08:00,
2013-11-29 09:13:00,27.5,25.2,30.65,SW,224,0.0,1.0,91,0.00,,,0.00,276,HR-IXPWINDi_r2_v1.2.,2013-11-29 14:13:00,
2013-11-29 09:18:00,28.2,25.9,30.65,SW,224,0.0,1.0,91,0.00,,,0.00,271,HR-IXPWINDi_r2_v1.2.,2013-11-29 14:18:00,
2013-11-29 09:24:00,28.9,26.6,30.65,SW,224,0.0,1.0,91,0.00,,,0.00,278,HR-IXPWINDi_r2_v1.2.,2013-11-29 14:24:00,
2013-11-29 09:29:00,29.4,26.8,30.65,SW,224,0.0,2.0,90,0.00,,,0.00,290,HR-IXPWINDi_r2_v1.2.,2013-11-29 14:29:00,
2013-11-29 09:34:00,29.6,25.9,30.65,SW,223,3.0,3.0,86,0.00,,,0.00,301,HR-IXPWINDi_r2_v1.2.,2013-11-29 14:34:00,
2013-11-29 09:39:00,30.8,26.8,30.65,SW,223,2.0,4.0,85,0.00,,,0.00,311,HR-IXPWINDi_r2_v1.2.,2013-11-29 14:39:00,
2013-11-29 09:44:00,31.1,26.5,30.65,SSW,193,0.0,4.0,83,0.00,,,0.00,323,HR-IXPWINDi_r2_v1.2.,2013-11-29 14:44:00,
2013-11-29 09:50:00,31.6,26.7,30.65,SSW,197,2.0,5.0,82,0.00,,,0.00,334,HR-IXPWINDi_r2_v1.2.,2013-11-29 14:50:00,
2013-11-29 09:55:00,32.2,26.7,30.65,SSW,197,2.0,5.0,80,0.00,,,0.00,346,HR-IXPWINDi_r2_v1.2.,2013-11-29 14:55:00,
2013-11-29 10:00:00,33.2,28.0,30.65,SSW,197,2.0,4.0,81,0.00,,,0.00,357,HR-IXPWINDi_r2_v1.2.,2013-11-29 15:00:00,
2013-11-29 10:05:00,34.5,28.6,30.66,SSW,197,0.0,4.0,79,0.00,,,0.00,376,HR-IXPWINDi_r2_v1.2.,2013-11-29 15:05:00,
2013-11-29 10:10:00,35.0,28.5,30.66,SSW,192,0.0,5.0,77,0.00,,,0.00,394,HR-IXPWINDi_r2_v1.2.,2013-11-29 15:10:00,
2013-11-29 10:16:00,35.6,28.1,30.66,South,184,4.0,6.0,74,0.00,,,0.00,410,HR-IXPWINDi_r2_v1.2.,2013-11-29 15:16:00,
2013-11-29 10:21:00,36.4,26.8,30.65,SSW,194,0.0,6.0,68,0.00,,,0.01,420,HR-IXPWINDi_r2_v1.2.,2013-11-29 15:21:00,
2013-11-29 10:26:00,36.3,25.7,30.65,South,188,5.0,5.0,65,0.00,,,0.01,429,HR-IXPWINDi_r2_v1.2.,2013-11-29 15:26:00,
2013-11-29 10:31:00,36.3,25.3,30.65,South,188,1.0,6.0,64,0.00,,,0.01,438,HR-IXPWINDi_r2_v1.2.,2013-11-29 15:31:00,
2013-11-29 10:37:00,36.5,25.5,30.65,South,178,2.0,6.0,64,0.00,,,0.01,445,HR-IXPWINDi_r2_v1.2.,2013-11-29 15:37:00,
2013-11-29 10:42:00,36.7,26.0,30.65,South,188,3.0,5.0,65,0.00,,,0.01,454,HR-IXPWINDi_r2_v1.2.,2013-11-29 15:42:00,
2013-11-29 10:47:00,37.0,25.2,30.65,SSW,196,4.0,6.0,62,0.00,,,0.01,461,HR-IXPWINDi_r2_v1.2.,2013-11-29 15:47:00,
2013-11-29 10:52:00,37.4,25.6,30.65,SSW,194,1.0,6.0,62,0.00,,,0.01,466,HR-IXPWINDi_r2_v1.2.,2013-11-29 15:52:00,
2013-11-29 10:57:00,38.3,26.8,30.65,South,175,2.0,6.0,63,0.00,,,0.01,473,HR-IXPWINDi_r2_v1.2.,2013-11-29 15:57:00,
2013-11-29 11:02:00,38.4,25.7,30.64,South,188,0.0,6.0,60,0.00,,,0.01,478,HR-IXPWINDi_r2_v1.2.,2013-11-29 16:02:00,
2013-11-29 11:07:00,38.9,26.2,30.64,SSE,163,5.0,6.0,60,0.00,,,0.01,485,HR-IXPWINDi_r2_v1.2.,2013-11-29 16:07:00,
2013-11-29 11:12:00,39.8,27.0,30.64,South,177,2.0,7.0,60,0.00,,,0.01,489,HR-IXPWINDi_r2_v1.2.,2013-11-29 16:12:00,
2013-11-29 11:17:00,40.1,26.9,30.64,SSW,193,2.0,7.0,59,0.00,,,0.01,494,HR-IXPWINDi_r2_v1.2.,2013-11-29 16:17:00,
2013-11-29 11:23:00,40.4,26.8,30.63,South,191,7.0,9.0,58,0.00,,,0.01,497,HR-IXPWINDi_r2_v1.2.,2013-11-29 16:23:00,
2013-11-29 11:28:00,40.3,26.7,30.63,South,187,8.0,9.0,58,0.00,,,0.01,501,HR-IXPWINDi_r2_v1.2.,2013-11-29 16:28:00,
2013-11-29 11:33:00,40.7,27.5,30.63,SSW,209,4.0,9.0,59,0.00,,,0.01,504,HR-IXPWINDi_r2_v1.2.,2013-11-29 16:33:00,
2013-11-29 11:38:00,40.7,27.9,30.63,South,187,6.0,9.0,60,0.00,,,0.01,508,HR-IXPWINDi_r2_v1.2.,2013-11-29 16:38:00,
2013-11-29 11:43:00,41.2,27.1,30.62,South,188,6.0,9.0,57,0.00,,,0.01,512,HR-IXPWINDi_r2_v1.2.,2013-11-29 16:43:00,
2013-11-29 11:49:00,41.5,29.0,30.62,SSW,192,0.0,9.0,61,0.00,,,0.01,513,HR-IXPWINDi_r2_v1.2.,2013-11-29 16:49:00,
2013-11-29 11:54:00,43.0,28.4,30.62,SE,136,0.0,7.0,56,0.00,,,0.01,517,HR-IXPWINDi_r2_v1.2.,2013-11-29 16:54:00,
2013-11-29 11:59:00,42.9,28.3,30.61,SSW,198,1.0,8.0,56,0.00,,,0.01,519,HR-IXPWINDi_r2_v1.2.,2013-11-29 16:59:00,
2013-11-29 12:04:00,43.2,27.7,30.61,SSW,200,2.0,8.0,54,0.00,,,0.01,519,HR-IXPWINDi_r2_v1.2.,2013-11-29 17:04:00,
2013-11-29 12:09:00,43.5,28.8,30.61,South,171,2.0,7.0,56,0.00,,,0.01,520,HR-IXPWINDi_r2_v1.2.,2013-11-29 17:09:00,
2013-11-29 12:14:00,43.9,28.8,30.61,SSW,198,5.0,7.0,55,0.00,,,0.01,522,HR-IXPWINDi_r2_v1.2.,2013-11-29 17:14:00,
2013-11-29 12:20:00,44.2,28.1,30.60,SSE,160,5.0,8.0,53,0.00,,,0.02,520,HR-IXPWINDi_r2_v1.2.,2013-11-29 17:20:00,
2013-11-29 12:25:00,44.9,28.8,30.60,SSE,162,4.0,9.0,53,0.00,,,0.02,520,HR-IXPWINDi_r2_v1.2.,2013-11-29 17:25:00,
2013-11-29 12:30:00,45.9,29.7,30.60,SSE,157,4.0,9.0,53,0.00,,,0.02,519,HR-IXPWINDi_r2_v1.2.,2013-11-29 17:30:00,
2013-11-29 12:35:00,46.3,29.6,30.59,South,183,5.0,8.0,52,0.00,,,0.02,519,HR-IXPWINDi_r2_v1.2.,2013-11-29 17:35:00,
2013-11-29 12:40:00,47.0,31.6,30.59,SSE,166,2.0,11.0,55,0.00,,,0.02,515,HR-IXPWINDi_r2_v1.2.,2013-11-29 17:40:00,
2013-11-29 12:45:00,47.4,30.2,30.59,SSE,168,4.0,11.0,51,0.00,,,0.02,515,HR-IXPWINDi_r2_v1.2.,2013-11-29 17:45:00,
2013-11-29 12:50:00,48.1,29.8,30.58,SSE,167,6.0,10.0,49,0.00,,,0.02,513,HR-IXPWINDi_r2_v1.2.,2013-11-29 17:50:00,
2013-11-29 12:55:00,48.2,30.4,30.58,SSW,205,2.0,10.0,50,0.00,,,0.02,510,HR-IXPWINDi_r2_v1.2.,2013-11-29 17:55:00,
2013-11-29 13:01:00,48.5,30.7,30.58,SSW,205,0.0,10.0,50,0.00,,,0.02,506,HR-IXPWINDi_r2_v1.2.,2013-11-29 18:01:00,
2013-11-29 13:06:00,48.8,31.0,30.58,SSW,197,8.0,10.0,50,0.00,,,0.02,503,HR-IXPWINDi_r2_v1.2.,2013-11-29 18:06:00,
2013-11-29 13:11:00,48.1,28.8,30.57,SSW,192,2.0,11.0,47,0.00,,,0.02,497,HR-IXPWINDi_r2_v1.2.,2013-11-29 18:11:00,
2013-11-29 13:16:00,48.9,30.0,30.58,South,184,9.0,11.0,48,0.00,,,0.02,492,HR-IXPWINDi_r2_v1.2.,2013-11-29 18:16:00,
2013-11-29 13:21:00,49.2,29.8,30.58,SSW,196,2.0,11.0,47,0.00,,,0.02,489,HR-IXPWINDi_r2_v1.2.,2013-11-29 18:21:00,
2013-11-29 13:27:00,49.2,29.3,30.57,South,182,9.0,11.0,46,0.00,,,0.02,483,HR-IXPWINDi_r2_v1.2.,2013-11-29 18:27:00,
2013-11-29 13:32:00,49.1,29.7,30.57,SSW,202,3.0,11.0,47,0.00,,,0.02,476,HR-IXPWINDi_r2_v1.2.,2013-11-29 18:32:00,
2013-11-29 13:37:00,49.4,28.4,30.57,South,191,7.0,11.0,44,0.00,,,0.02,469,HR-IXPWINDi_r2_v1.2.,2013-11-29 18:37:00,
2013-11-29 13:42:00,49.3,28.3,30.56,SE,142,5.0,8.0,44,0.00,,,0.02,464,HR-IXPWINDi_r2_v1.2.,2013-11-29 18:42:00,
2013-11-29 13:48:00,49.7,29.2,30.56,South,184,1.0,8.0,45,0.00,,,0.02,455,HR-IXPWINDi_r2_v1.2.,2013-11-29 18:48:00,
2013-11-29 13:53:00,49.9,28.8,30.56,South,184,4.0,9.0,44,0.00,,,0.02,448,HR-IXPWINDi_r2_v1.2.,2013-11-29 18:53:00,
2013-11-29 13:58:00,50.0,28.9,30.56,SSW,196,5.0,9.0,44,0.00,,,0.02,441,HR-IXPWINDi_r2_v1.2.,2013-11-29 18:58:00,
2013-11-29 14:03:00,50.3,29.7,30.56,South,190,8.0,8.0,45,0.00,,,0.02,432,HR-IXPWINDi_r2_v1.2.,2013-11-29 19:03:00,
2013-11-29 14:08:00,50.1,27.9,30.55,South,186,3.0,9.0,42,0.00,,,0.02,422,HR-IXPWINDi_r2_v1.2.,2013-11-29 19:08:00,
2013-11-29 14:13:00,50.2,28.5,30.55,South,184,2.0,9.0,43,0.00,,,0.02,413,HR-IXPWINDi_r2_v1.2.,2013-11-29 19:13:00,
2013-11-29 14:18:00,50.2,29.1,30.55,SSE,157,5.0,8.0,44,0.00,,,0.02,404,HR-IXPWINDi_r2_v1.2.,2013-11-29 19:18:00,
2013-11-29 14:24:00,50.3,29.7,30.55,South,190,3.0,8.0,45,0.00,,,0.02,394,HR-IXPWINDi_r2_v1.2.,2013-11-29 19:24:00,
2013-11-29 14:29:00,50.3,29.7,30.55,SSW,192,7.0,8.0,45,0.00,,,0.02,385,HR-IXPWINDi_r2_v1.2.,2013-11-29 19:29:00,
2013-11-29 14:34:00,50.9,29.7,30.54,SSE,151,5.0,9.0,44,0.00,,,0.02,374,HR-IXPWINDi_r2_v1.2.,2013-11-29 19:34:00,
2013-11-29 14:39:00,50.6,30.0,30.54,SSE,154,7.0,7.0,45,0.00,,,0.02,364,HR-IXPWINDi_r2_v1.2.,2013-11-29 19:39:00,
2013-11-29 14:44:00,50.9,30.3,30.54,SSE,161,2.0,7.0,45,0.00,,,0.02,352,HR-IXPWINDi_r2_v1.2.,2013-11-29 19:44:00,
2013-11-29 14:50:00,50.6,28.9,30.53,South,189,3.0,7.0,43,0.00,,,0.02,339,HR-IXPWINDi_r2_v1.2.,2013-11-29 19:50:00,
2013-11-29 14:55:00,50.7,29.0,30.53,South,186,4.0,7.0,43,0.00,,,0.02,327,HR-IXPWINDi_r2_v1.2.,2013-11-29 19:55:00,
2013-11-29 15:00:00,51.0,29.8,30.54,South,187,3.0,7.0,44,0.00,,,0.02,315,HR-IXPWINDi_r2_v1.2.,2013-11-29 20:00:00,
2013-11-29 15:05:00,50.9,30.8,30.54,South,190,0.0,5.0,46,0.00,,,0.02,302,HR-IXPWINDi_r2_v1.2.,2013-11-29 20:05:00,
2013-11-29 15:11:00,51.1,31.0,30.54,South,190,1.0,5.0,46,0.00,,,0.02,288,HR-IXPWINDi_r2_v1.2.,2013-11-29 20:11:00,
2013-11-29 15:16:00,51.4,31.3,30.54,South,186,5.0,6.0,46,0.00,,,0.02,278,HR-IXPWINDi_r2_v1.2.,2013-11-29 20:16:00,
2013-11-29 15:21:00,50.9,29.7,30.54,South,190,6.0,7.0,44,0.00,,,0.02,264,HR-IXPWINDi_r2_v1.2.,2013-11-29 20:21:00,
2013-11-29 15:26:00,50.5,31.5,30.54,SSE,148,2.0,7.0,48,0.00,,,0.02,248,HR-IXPWINDi_r2_v1.2.,2013-11-29 20:26:00,
2013-11-29 15:31:00,50.7,32.7,30.54,South,170,5.0,6.0,50,0.00,,,0.02,232,HR-IXPWINDi_r2_v1.2.,2013-11-29 20:31:00,
2013-11-29 15:37:00,49.8,33.3,30.54,South,170,0.0,5.0,53,0.00,,,0.02,214,HR-IXPWINDi_r2_v1.2.,2013-11-29 20:37:00,
2013-11-29 15:42:00,49.2,34.1,30.54,SSE,147,1.0,5.0,56,0.00,,,0.02,197,HR-IXPWINDi_r2_v1.2.,2013-11-29 20:42:00,
2013-11-29 15:47:00,48.8,34.2,30.54,SE,143,1.0,6.0,57,0.00,,,0.02,179,HR-IXPWINDi_r2_v1.2.,2013-11-29 20:47:00,
2013-11-29 15:52:00,47.4,33.8,30.54,SE,143,0.0,6.0,59,0.00,,,0.02,163,HR-IXPWINDi_r2_v1.2.,2013-11-29 20:52:00,
2013-11-29 15:57:00,47.2,34.8,30.54,SE,143,0.0,4.0,62,0.00,,,0.02,144,HR-IXPWINDi_r2_v1.2.,2013-11-29 20:57:00,
2013-11-29 16:03:00,46.2,33.1,30.54,ESE,120,2.0,4.0,60,0.00,,,0.02,125,HR-IXPWINDi_r2_v1.2.,2013-11-29 21:03:00,
2013-11-29 16:08:00,44.7,32.8,30.54,ESE,120,0.0,4.0,63,0.00,,,0.02,109,HR-IXPWINDi_r2_v1.2.,2013-11-29 21:08:00,
2013-11-29 16:13:00,44.3,32.9,30.55,ESE,120,0.0,4.0,64,0.00,,,0.02,93,HR-IXPWINDi_r2_v1.2.,2013-11-29 21:13:00,
2013-11-29 16:18:00,43.7,33.1,30.54,ESE,120,0.0,2.0,66,0.00,,,0.02,77,HR-IXPWINDi_r2_v1.2.,2013-11-29 21:18:00,
2013-11-29 16:23:00,43.0,33.1,30.55,ESE,120,0.0,2.0,68,0.00,,,0.02,65,HR-IXPWINDi_r2_v1.2.,2013-11-29 21:23:00,
2013-11-29 16:29:00,42.9,33.0,30.55,ESE,120,0.0,2.0,68,0.00,,,0.02,51,HR-IXPWINDi_r2_v1.2.,2013-11-29 21:29:00,
2013-11-29 16:34:00,42.0,32.5,30.55,ESE,120,0.0,1.0,69,0.00,,,0.02,39,HR-IXPWINDi_r2_v1.2.,2013-11-29 21:34:00,
2013-11-29 16:39:00,41.3,32.2,30.55,ESE,120,0.0,1.0,70,0.00,,,0.02,26,HR-IXPWINDi_r2_v1.2.,2013-11-29 21:39:00,
2013-11-29 16:44:00,40.8,32.4,30.55,ESE,120,0.0,1.0,72,0.00,,,0.02,18,HR-IXPWINDi_r2_v1.2.,2013-11-29 21:44:00,
2013-11-29 16:49:00,40.4,32.1,30.56,ESE,120,0.0,0.0,72,0.00,,,0.02,12,HR-IXPWINDi_r2_v1.2.,2013-11-29 21:49:00,
2013-11-29 16:54:00,40.0,33.0,30.56,ESE,120,0.0,0.0,76,0.00,,,0.02,11,HR-IXPWINDi_r2_v1.2.,2013-11-29 21:54:00,
2013-11-29 16:59:00,40.0,32.4,30.56,ESE,120,0.0,0.0,74,0.00,,,0.02,11,HR-IXPWINDi_r2_v1.2.,2013-11-29 21:59:00,
2013-11-29 17:05:00,40.5,32.8,30.56,ESE,120,0.0,0.0,74,0.00,,,0.02,9,HR-IXPWINDi_r2_v1.2.,2013-11-29 22:05:00,
2013-11-29 17:10:00,40.9,33.6,30.56,ESE,120,0.0,0.0,75,0.00,,,0.02,7,HR-IXPWINDi_r2_v1.2.,2013-11-29 22:10:00,
2013-11-29 17:15:00,41.0,33.3,30.56,ESE,120,0.0,0.0,74,0.00,,,0.02,5,HR-IXPWINDi_r2_v1.2.,2013-11-29 22:15:00,
2013-11-29 17:21:00,39.4,32.1,30.56,ESE,120,0.0,0.0,75,0.00,,,0.02,0,HR-IXPWINDi_r2_v1.2.,2013-11-29 22:21:00,
2013-11-29 17:26:00,38.6,32.0,30.56,ESE,120,0.0,0.0,77,0.00,,,0.02,0,HR-IXPWINDi_r2_v1.2.,2013-11-29 22:26:00,
2013-11-29 17:31:00,37.5,31.2,30.56,ESE,120,0.0,0.0,78,0.00,,,0.02,0,HR-IXPWINDi_r2_v1.2.,2013-11-29 22:31:00,
2013-11-29 17:37:00,36.7,31.1,30.57,ESE,120,0.0,0.0,80,0.00,,,0.02,0,HR-IXPWINDi_r2_v1.2.,2013-11-29 22:37:00,
2013-11-29 17:42:00,36.2,31.2,30.57,ESE,120,0.0,1.0,82,0.00,,,0.02,0,HR-IXPWINDi_r2_v1.2.,2013-11-29 22:42:00,
2013-11-29 17:47:00,36.2,31.2,30.57,ESE,120,0.0,1.0,82,0.00,,,0.02,0,HR-IXPWINDi_r2_v1.2.,2013-11-29 22:47:00,
2013-11-29 17:52:00,35.7,30.7,30.58,ESE,120,0.0,0.0,82,0.00,,,0.02,0,HR-IXPWINDi_r2_v1.2.,2013-11-29 22:52:00,
2013-11-29 17:57:00,36.4,31.7,30.58,ESE,120,0.0,0.0,83,0.00,,,0.02,0,HR-IXPWINDi_r2_v1.2.,2013-11-29 22:57:00,
2013-11-29 18:02:00,37.1,32.1,30.58,ESE,120,0.0,0.0,82,0.00,,,0.02,0,HR-IXPWINDi_r2_v1.2.,2013-11-29 23:02:00,
2013-11-29 18:07:00,36.2,30.6,30.58,ESE,120,0.0,0.0,80,0.00,,,0.02,0,HR-IXPWINDi_r2_v1.2.,2013-11-29 23:07:00,
2013-11-29 18:13:00,35.2,30.5,30.59,ESE,120,0.0,0.0,83,0.00,,,0.02,0,HR-IXPWINDi_r2_v1.2.,2013-11-29 23:13:00,
2013-11-29 18:18:00,34.4,29.7,30.59,ESE,120,0.0,0.0,83,0.00,,,0.02,0,HR-IXPWINDi_r2_v1.2.,2013-11-29 23:18:00,
2013-11-29 18:23:00,33.8,29.5,30.59,ESE,120,0.0,0.0,84,0.00,,,0.02,0,HR-IXPWINDi_r2_v1.2.,2013-11-29 23:23:00,
2013-11-29 18:29:00,33.9,29.8,30.59,ESE,120,0.0,0.0,85,0.00,,,0.02,0,HR-IXPWINDi_r2_v1.2.,2013-11-29 23:29:00,
2013-11-29 18:34:00,33.3,29.3,30.59,ESE,120,0.0,0.0,85,0.00,,,0.02,0,HR-IXPWINDi_r2_v1.2.,2013-11-29 23:34:00,
2013-11-29 18:39:00,33.0,29.0,30.60,ESE,120,0.0,2.0,85,0.00,,,0.02,0,HR-IXPWINDi_r2_v1.2.,2013-11-29 23:39:00,
2013-11-29 18:44:00,32.4,28.7,30.60,ESE,120,0.0,2.0,86,0.00,,,0.02,0,HR-IXPWINDi_r2_v1.2.,2013-11-29 23:44:00,
2013-11-29 18:49:00,32.4,28.9,30.60,ESE,120,0.0,0.0,87,0.00,,,0.02,0,HR-IXPWINDi_r2_v1.2.,2013-11-29 23:49:00,
2013-11-29 18:54:00,32.3,28.8,30.60,ESE,120,0.0,0.0,87,0.00,,,0.02,0,HR-IXPWINDi_r2_v1.2.,2013-11-29 23:54:00,
2013-11-29 18:59:00,32.5,29.3,30.60,ESE,120,0.0,0.0,88,0.00,,,0.02,0,HR-IXPWINDi_r2_v1.2.,2013-11-29 23:59:00,
2013-11-29 19:05:00,32.4,29.2,30.60,ESE,120,0.0,0.0,88,0.00,,,0.02,0,HR-IXPWINDi_r2_v1.2.,2013-11-30 00:05:00,
2013-11-29 19:10:00,33.0,29.8,30.60,ESE,120,0.0,0.0,88,0.00,,,0.02,0,HR-IXPWINDi_r2_v1.2.,2013-11-30 00:10:00,
2013-11-29 19:15:00,32.6,29.1,30.60,ESE,120,0.0,2.0,87,0.00,,,0.02,0,HR-IXPWINDi_r2_v1.2.,2013-11-30 00:15:00,
2013-11-29 19:20:00,31.7,28.3,30.60,ESE,120,0.0,2.0,87,0.00,,,0.02,0,HR-IXPWINDi_r2_v1.2.,2013-11-30 00:20:00,
2013-11-29 19:25:00,31.4,28.2,30.60,ESE,120,0.0,1.0,88,0.00,,,0.02,0,HR-IXPWINDi_r2_v1.2.,2013-11-30 00:25:00,
2013-11-29 19:31:00,30.6,27.5,30.60,ESE,120,0.0,2.0,88,0.00,,,0.02,0,HR-IXPWINDi_r2_v1.2.,2013-11-30 00:31:00,
2013-11-29 19:36:00,30.1,27.0,30.61,ESE,120,0.0,2.0,88,0.00,,,0.02,0,HR-IXPWINDi_r2_v1.2.,2013-11-30 00:36:00,
2013-11-29 19:41:00,30.1,27.5,30.61,ESE,120,0.0,0.0,90,0.00,,,0.02,0,HR-IXPWINDi_r2_v1.2.,2013-11-30 00:41:00,
2013-11-29 19:47:00,30.5,27.9,30.61,ESE,115,4.0,4.0,90,0.00,,,0.02,0,HR-IXPWINDi_r2_v1.2.,2013-11-30 00:47:00,
2013-11-29 19:52:00,30.6,28.0,30.60,North,355,3.0,4.0,90,0.00,,,0.02,0,HR-IXPWINDi_r2_v1.2.,2013-11-30 00:52:00,
2013-11-29 19:57:00,30.1,27.5,30.61,SE,124,0.0,4.0,90,0.00,,,0.02,0,HR-IXPWINDi_r2_v1.2.,2013-11-30 00:57:00,
2013-11-29 20:02:00,30.2,27.9,30.61,SE,124,0.0,4.0,91,0.00,,,0.02,0,HR-IXPWINDi_r2_v1.2.,2013-11-30 01:02:00,
2013-11-29 20:07:00,30.3,28.0,30.61,SE,124,0.0,0.0,91,0.00,,,0.02,0,HR-IXPWINDi_r2_v1.2.,2013-11-30 01:07:00,
2013-11-29 20:13:00,30.2,27.6,30.61,SE,124,0.0,0.0,90,0.00,,,0.02,0,HR-IXPWINDi_r2_v1.2.,2013-11-30 01:13:00,
2013-11-29 20:18:00,30.2,27.6,30.61,SE,124,0.0,1.0,90,0.00,,,0.02,0,HR-IXPWINDi_r2_v1.2.,2013-11-30 01:18:00,
2013-11-29 20:23:00,29.6,27.0,30.61,ESE,123,0.0,1.0,90,0.00,,,0.02,0,HR-IXPWINDi_r2_v1.2.,2013-11-30 01:23:00,
2013-11-29 20:28:00,29.7,27.1,30.61,ESE,123,0.0,1.0,90,0.00,,,0.02,0,HR-IXPWINDi_r2_v1.2.,2013-11-30 01:28:00,
2013-11-29 20:33:00,29.6,27.0,30.61,ESE,123,0.0,0.0,90,0.00,,,0.02,0,HR-IXPWINDi_r2_v1.2.,2013-11-30 01:33:00,
2013-11-29 20:39:00,29.3,26.7,30.61,ESE,123,0.0,2.0,90,0.00,,,0.02,0,HR-IXPWINDi_r2_v1.2.,2013-11-30 01:39:00,
2013-11-29 20:44:00,29.3,26.7,30.61,ESE,123,0.0,2.0,90,0.00,,,0.02,0,HR-IXPWINDi_r2_v1.2.,2013-11-30 01:44:00,
2013-11-29 20:49:00,29.6,27.3,30.61,ESE,123,0.0,1.0,91,0.00,,,0.02,0,HR-IXPWINDi_r2_v1.2.,2013-11-30 01:49:00,
2013-11-29 20:54:00,29.9,27.6,30.62,East,96,0.0,2.0,91,0.00,,,0.02,0,HR-IXPWINDi_r2_v1.2.,2013-11-30 01:54:00,
2013-11-29 20:59:00,29.6,27.0,30.62,East,96,0.0,2.0,90,0.00,,,0.02,0,HR-IXPWINDi_r2_v1.2.,2013-11-30 01:59:00,
2013-11-29 21:05:00,29.3,27.0,30.62,East,96,0.0,1.0,91,0.00,,,0.02,0,HR-IXPWINDi_r2_v1.2.,2013-11-30 02:05:00,
2013-11-29 21:10:00,29.2,26.6,30.62,East,92,2.0,4.0,90,0.00,,,0.02,0,HR-IXPWINDi_r2_v1.2.,2013-11-30 02:10:00,
2013-11-29 21:15:00,28.9,26.3,30.62,East,88,0.0,4.0,90,0.00,,,0.02,0,HR-IXPWINDi_r2_v1.2.,2013-11-30 02:15:00,
2013-11-29 21:20:00,28.9,26.6,30.62,East,88,0.0,4.0,91,0.00,,,0.02,0,HR-IXPWINDi_r2_v1.2.,2013-11-30 02:20:00,
2013-11-29 21:26:00,28.9,26.6,30.62,East,88,0.0,0.0,91,0.00,,,0.02,0,HR-IXPWINDi_r2_v1.2.,2013-11-30 02:26:00,
2013-11-29 21:31:00,29.4,27.1,30.62,East,88,1.0,1.0,91,0.00,,,0.02,0,HR-IXPWINDi_r2_v1.2.,2013-11-30 02:31:00,
2013-11-29 21:36:00,29.2,26.6,30.63,East,88,2.0,3.0,90,0.00,,,0.02,0,HR-IXPWINDi_r2_v1.2.,2013-11-30 02:36:00,
2013-11-29 21:41:00,28.8,26.2,30.63,East,88,0.0,3.0,90,0.00,,,0.02,0,HR-IXPWINDi_r2_v1.2.,2013-11-30 02:41:00,
2013-11-29 21:46:00,28.6,26.0,30.63,North,11,0.0,3.0,90,0.00,,,0.02,0,HR-IXPWINDi_r2_v1.2.,2013-11-30 02:46:00,
2013-11-29 21:52:00,28.6,26.3,30.63,North,11,0.0,3.0,91,0.00,,,0.02,0,HR-IXPWINDi_r2_v1.2.,2013-11-30 02:52:00,
2013-11-29 21:57:00,28.4,26.1,30.63,NNE,19,0.0,2.0,91,0.00,,,0.02,0,HR-IXPWINDi_r2_v1.2.,2013-11-30 02:57:00,
2013-11-29 22:02:00,28.3,26.0,30.63,NNE,19,0.0,2.0,91,0.00,,,0.02,0,HR-IXPWINDi_r2_v1.2.,2013-11-30 03:02:00,
2013-11-29 22:07:00,28.2,25.9,30.62,NNE,17,0.0,3.0,91,0.00,,,0.02,0,HR-IXPWINDi_r2_v1.2.,2013-11-30 03:07:00,
2013-11-29 22:12:00,28.3,26.0,30.63,NNE,17,0.0,3.0,91,0.00,,,0.02,0,HR-IXPWINDi_r2_v1.2.,2013-11-30 03:12:00,
2013-11-29 22:18:00,28.5,26.2,30.63,NNE,17,0.0,0.0,91,0.00,,,0.02,0,HR-IXPWINDi_r2_v1.2.,2013-11-30 03:18:00,
2013-11-29 22:23:00,28.5,26.2,30.63,NNE,17,1.0,1.0,91,0.00,,,0.02,0,HR-IXPWINDi_r2_v1.2.,2013-11-30 03:23:00,
2013-11-29 22:28:00,28.4,26.1,30.63,NNE,17,0.0,1.0,91,0.00,,,0.02,0,HR-IXPWINDi_r2_v1.2.,2013-11-30 03:28:00,
2013-11-29 22:33:00,28.2,25.9,30.63,NNE,17,0.0,1.0,91,0.00,,,0.02,0,HR-IXPWINDi_r2_v1.2.,2013-11-30 03:33:00,
2013-11-29 22:38:00,28.4,26.1,30.63,NNE,17,1.0,1.0,91,0.00,,,0.02,0,HR-IXPWINDi_r2_v1.2.,2013-11-30 03:38:00,
2013-11-29 22:43:00,28.2,25.9,30.63,NNE,17,0.0,2.0,91,0.00,,,0.02,0,HR-IXPWINDi_r2_v1.2.,2013-11-30 03:43:00,
2013-11-29 22:48:00,28.3,26.0,30.63,NNE,17,0.0,2.0,91,0.00,,,0.02,0,HR-IXPWINDi_r2_v1.2.,2013-11-30 03:48:00,
2013-11-29 22:53:00,28.3,26.0,30.63,NNE,17,0.0,0.0,91,0.00,,,0.02,0,HR-IXPWINDi_r2_v1.2.,2013-11-30 03:53:00,
2013-11-29 22:58:00,28.1,25.8,30.63,NNE,17,1.0,2.0,91,0.00,,,0.02,0,HR-IXPWINDi_r2_v1.2.,2013-11-30 03:58:00,
2013-11-29 23:03:00,27.4,24.8,30.63,NNE,17,0.0,2.0,90,0.00,,,0.02,0,HR-IXPWINDi_r2_v1.2.,2013-11-30 04:03:00,
2013-11-29 23:09:00,27.3,25.0,30.63,NNE,17,0.0,2.0,91,0.00,,,0.02,0,HR-IXPWINDi_r2_v1.2.,2013-11-30 04:09:00,
2013-11-29 23:14:00,27.5,25.2,30.63,NNE,17,1.0,2.0,91,0.00,,,0.02,0,HR-IXPWINDi_r2_v1.2.,2013-11-30 04:14:00,
2013-11-29 23:19:00,27.4,25.1,30.63,NNE,17,0.0,2.0,91,0.00,,,0.02,0,HR-IXPWINDi_r2_v1.2.,2013-11-30 04:19:00,
2013-11-29 23:24:00,27.4,25.1,30.63,NNE,17,0.0,1.0,91,0.00,,,0.02,0,HR-IXPWINDi_r2_v1.2.,2013-11-30 04:24:00,
2013-11-29 23:29:00,27.2,24.9,30.63,NNE,17,0.0,2.0,91,0.00,,,0.02,0,HR-IXPWINDi_r2_v1.2.,2013-11-30 04:29:00,
2013-11-29 23:34:00,26.9,24.6,30.63,NNE,17,1.0,2.0,91,0.00,,,0.02,0,HR-IXPWINDi_r2_v1.2.,2013-11-30 04:34:00,
2013-11-29 23:40:00,26.7,24.4,30.63,NNE,17,0.0,3.0,91,0.00,,,0.02,0,HR-IXPWINDi_r2_v1.2.,2013-11-30 04:40:00,
2013-11-29 23:45:00,26.5,24.2,30.63,NNE,17,0.0,3.0,91,0.00,,,0.02,0,HR-IXPWINDi_r2_v1.2.,2013-11-30 04:45:00,
2013-11-29 23:50:00,26.4,24.4,30.63,NNE,17,0.0,0.0,92,0.00,,,0.02,0,HR-IXPWINDi_r2_v1.2.,2013-11-30 04:50:00,
2013-11-29 23:56:00,26.6,24.6,30.63,NNE,17,0.0,0.0,92,0.00,,,0.02,0,HR-IXPWINDi_r2_v1.2.,2013-11-30 04:56:00,